Latest Weather Observations for Coolangatta

IDN60801

Issued at 12:42 pm EDT Thursday 24 October 2019 (issued every 10 minutes, with the page automatically refreshed every 10 minutes)

About weather observations | Map of weather stations | Latest weather observations for NSW | Other Formats
Station Details ID: 040717 Name: COOLANGATTA Lat: -28.17 Lon: 153.51 Height: 4.0 m
Data from the previous 72 hours. | See also: Recent months at Coolangatta

Observations at Coolangatta are collected in the Queensland time zone, which does not include daylight savings during the summer period. Therefore 'Rain since 9am' totals and other values are based on the Queensland time zone.

Date/Time
EDT
Temp
°C
App
Temp
°C
Dew
Point
°C
Rel
Hum
%
Delta-T
°C
Wind Press
QNH
hPa
Press
MSL
hPa
Rain since
9am
mm
Dir  Spd
km/h
Gust
km/h
Spd
kts
Gust
kts
24/12:30pm 24.5 21.0 15.4 57 5.5 NNE 28 33 15 18 1020.8 1020.8 0.0
24/12:00pm 23.8 20.1 15.0 57 5.2 NNE 28 33 15 18 1020.9 1020.9 0.0
24/11:30am 23.3 19.6 15.1 60 4.9 NNE 28 32 15 17 1021.1 1021.1 0.0
24/11:00am 23.4 20.1 14.9 59 5.0 NNE 26 32 14 17 1021.4 1021.4 0.0
24/10:30am 22.9 19.6 15.0 61 4.7 N 26 30 14 16 1021.7 1021.7 0.0
24/10:00am 23.1 20.8 14.7 59 5.0 N 20 26 11 14 1021.7 1021.7 0.0
24/09:30am 22.7 19.3 13.7 56 5.2 N 24 30 13 16 1021.8 1021.8 0.0
24/09:00am 21.7 19.0 13.6 60 4.7 N 20 28 11 15 1021.6 1021.6 0.0
24/08:30am 21.4 19.2 13.3 60 4.6 NNW 17 24 9 13 1021.6 1021.6 0.0
24/08:00am 20.1 18.8 13.8 67 3.6 NNW 13 19 7 10 1021.4 1021.4 0.0
24/07:30am 18.7 17.8 13.8 73 2.8 NW 11 15 6 8 1021.3 1021.3 0.0
24/07:00am 17.1 16.4 13.2 78 2.2 NW 9 13 5 7 1021.2 1021.2 0.0
24/06:30am 15.9 14.3 12.8 82 1.7 NW 13 15 7 8 1020.9 1020.9 0.0
24/06:00am 15.1 13.8 12.4 84 1.5 NW 11 13 6 7 1020.7 1020.7 0.0
24/05:30am 15.6 13.9 12.5 82 1.7 NW 13 17 7 9 1020.5 1020.5 0.0
24/05:00am 15.5 14.2 12.4 82 1.7 NW 11 15 6 8 1020.4 1020.4 0.0
24/04:30am 15.2 13.9 12.5 84 1.5 NW 11 15 6 8 1020.5 1020.5 0.0
24/04:00am 15.2 14.3 12.7 85 1.4 WNW 9 11 5 6 1020.6 1020.6 0.0
24/03:30am 14.9 14.0 12.6 86 1.3 WNW 9 11 5 6 1020.8 1020.8 0.0
24/03:00am 14.4 13.5 12.6 89 1.0 WNW 9 11 5 6 1021.1 1021.1 0.0
24/02:30am 14.0 13.3 12.0 88 1.1 WNW 7 9 4 5 1021.4 1021.4 0.0
24/02:00am 14.2 13.2 12.4 89 1.0 WNW 9 11 5 6 1021.6 1021.6 0.0
24/01:30am 14.1 13.2 12.5 90 0.9 WNW 9 11 5 6 1022.0 1022.0 0.0
24/01:00am 13.4 12.7 12.0 91 0.7 W 7 9 4 5 1022.4 1022.4 0.0
24/12:30am 14.1 13.3 13.0 93 0.6 WSW 9 9 5 5 1022.7 1022.7 0.0
24/12:00am 13.4 12.8 11.6 89 1.0 WSW 6 7 3 4 1022.8 1022.8 0.0
 
Date/Time
EDT
Temp
°C
App
Temp
°C
Dew
Point
°C
Rel
Hum
%
Delta-T
°C
Wind Press
QNH
hPa
Press
MSL
hPa
Rain since
9am
mm
Dir  Spd
km/h
Gust
km/h
Spd
kts
Gust
kts
23/11:30pm 14.9 14.2 13.1 89 1.0 WSW 9 11 5 6 1023.2 1023.2 0.0
23/11:00pm 15.1 14.4 13.3 89 1.0 WSW 9 11 5 6 1023.3 1023.3 0.0
23/10:30pm 15.5 15.2 13.3 87 1.2 W 7 9 4 5 1023.5 1023.5 0.0
23/10:00pm 15.7 14.9 12.8 83 1.6 WSW 9 9 5 5 1023.6 1023.6 0.0
23/09:30pm 16.9 16.3 12.4 75 2.5 W 7 9 4 5 1023.6 1023.6 0.0
23/09:00pm 19.5 18.4 13.2 67 3.6 NNE 11 17 6 9 1023.6 1023.6 0.0
23/08:30pm 19.9 18.5 13.4 66 3.7 NNE 13 15 7 8 1023.2 1023.2 0.0
23/08:00pm 20.2 19.0 12.9 63 4.1 NE 11 13 6 7 1023.1 1023.1 0.0
23/07:30pm 20.2 19.6 13.4 65 3.9 NE 9 15 5 8 1023.0 1023.0 0.0
23/07:00pm 20.6 19.2 13.3 63 4.2 NE 13 17 7 9 1022.7 1022.7 0.0
23/06:30pm 21.3 19.4 13.0 59 4.7 ENE 15 19 8 10 1022.3 1022.3 0.0
23/06:00pm 21.7 19.3 12.5 56 5.2 NE 17 20 9 11 1022.0 1022.0 0.0
23/05:30pm 22.1 19.3 12.6 55 5.4 ENE 19 22 10 12 1021.8 1021.8 0.0
23/05:00pm 22.5 19.8 13.0 55 5.4 ENE 19 22 10 12 1022.0 1022.0 0.0
23/04:30pm 23.1 20.4 13.0 53 5.8 NE 19 22 10 12 1021.9 1021.9 0.0
23/04:00pm 22.9 19.9 12.5 52 5.9 ENE 20 26 11 14 1022.0 1022.0 0.0
23/03:30pm 23.5 20.2 12.8 51 6.1 NE 22 28 12 15 1022.0 1022.0 0.0
23/03:00pm 23.5 20.5 13.7 54 5.7 ENE 22 30 12 16 1022.2 1022.2 0.0
23/02:30pm 23.8 20.4 13.6 52 5.9 ESE 24 37 13 20 1022.5 1022.5 0.0
23/02:00pm 24.2 21.0 13.1 50 6.4 E 22 30 12 16 1022.8 1022.8 0.0
23/01:30pm 24.6 21.5 12.2 46 7.1 E 20 28 11 15 1023.4 1023.4 0.0
23/01:00pm 23.7 20.1 10.0 42 7.5 E 19 28 10 15 1023.6 1023.6 0.0
23/12:30pm 24.0 21.2 12.6 49 6.5 E 19 26 10 14 1023.9 1023.9 0.0
23/12:00pm 23.7 20.6 11.7 47 6.7 E 19 26 10 14 1024.2 1024.2 0.0
23/11:30am 23.8 21.2 12.1 48 6.6 E 17 28 9 15 1024.4 1024.4 0.0
23/11:00am 23.5 21.5 11.5 47 6.7 ESE 13 22 7 12 1024.8 1024.8 0.0
23/10:30am 23.6 20.9 11.6 47 6.8 E 17 24 9 13 1024.9 1024.9 0.0
23/10:00am 22.4 20.7 12.6 54 5.6 E 13 22 7 12 1024.9 1024.9 0.0
23/09:30am 21.7 19.3 12.5 56 5.2 SE 17 20 9 11 1024.7 1024.7 0.0
23/09:00am 21.7 21.0 13.3 59 4.8 SSE 9 17 5 9 1024.5 1024.5 0.0
23/08:30am 21.3 20.9 14.0 63 4.2 SSE 9 11 5 6 1024.4 1024.4 0.0
23/08:00am 19.0 19.2 14.7 76 2.5 SW 7 9 4 5 1024.3 1024.3 0.0
23/07:30am 17.3 17.5 14.8 85 1.4 SW 7 9 4 5 1024.2 1024.2 0.0
23/07:00am 16.4 16.9 15.1 92 0.7 SW 6 9 3 5 1024.0 1024.0 0.0
23/06:30am 14.3 14.2 13.3 94 0.6 SW 6 7 3 4 1023.7 1023.7 0.0
23/06:00am 13.6 14.4 12.5 93 0.6 CALM 0 0 0 0 1023.4 1023.4 0.0
23/05:30am 13.7 14.5 12.6 93 0.6 CALM 0 0 0 0 1023.2 1023.2 0.0
23/05:00am 14.9 16.1 13.8 93 0.6 CALM 0 0 0 0 1022.9 1022.9 0.0
23/04:30am 15.2 16.5 14.1 93 0.6 CALM 0 0 0 0 1022.9 1022.9 0.0
23/04:00am 15.1 15.9 13.8 92 0.7 SW 2 7 1 4 1022.7 1022.7 0.0
23/03:30am 14.7 15.7 13.1 90 0.9 CALM 0 0 0 0 1022.9 1022.9 0.0
23/03:00am 15.3 15.4 13.8 91 0.8 SSW 6 7 3 4 1023.2 1023.2 0.0
23/02:30am 15.7 15.9 14.2 91 0.9 SW 6 7 3 4 1023.4 1023.4 0.0
23/02:00am 15.5 15.6 13.9 90 0.9 SW 6 9 3 5 1023.6 1023.6 0.0
23/01:30am 15.1 14.7 13.1 88 1.1 SW 7 9 4 5 1023.8 1023.8 0.0
23/01:00am 16.5 16.7 14.3 87 1.2 SW 6 7 3 4 1024.0 1024.0 0.0
23/12:30am 16.9 16.7 14.7 87 1.3 SW 9 13 5 7 1024.4 1024.4 0.0
23/12:00am 16.4 16.4 14.2 87 1.2 SW 7 9 4 5 1024.7 1024.7 0.0
 
Date/Time
EDT
Temp
°C
App
Temp
°C
Dew
Point
°C
Rel
Hum
%
Delta-T
°C
Wind Press
QNH
hPa
Press
MSL
hPa
Rain since
9am
mm
Dir  Spd
km/h
Gust
km/h
Spd
kts
Gust
kts
22/11:30pm 16.9 17.0 14.5 86 1.4 SW 7 9 4 5 1024.7 1024.7 0.0
22/11:00pm 16.8 17.0 14.3 85 1.4 SW 6 9 3 5 1024.8 1024.8 0.0
22/10:30pm 16.7 16.8 14.5 87 1.3 WSW 7 9 4 5 1024.8 1024.8 0.0
22/10:00pm 17.1 17.3 14.6 85 1.4 SW 7 11 4 6 1024.7 1024.7 0.0
22/09:30pm 18.0 18.4 15.3 84 1.6 WSW 7 9 4 5 1024.8 1024.8 0.0
22/09:00pm 18.3 18.4 15.6 84 1.6 WSW 9 13 5 7 1024.7 1024.7 0.0
22/08:30pm 18.0 18.2 14.3 79 2.1 SSW 6 7 3 4 1024.4 1024.4 0.0
22/08:00pm 19.4 19.7 14.4 73 2.9 S 6 9 3 5 1024.4 1024.4 0.0
22/07:30pm 19.2 18.9 13.4 69 3.3 SE 7 9 4 5 1024.1 1024.1 0.0
22/07:00pm 19.8 18.8 13.5 67 3.6 SE 11 15 6 8 1023.6 1023.6 0.0
22/06:30pm 20.6 19.5 14.3 67 3.7 ESE 13 17 7 9 1023.4 1023.4 0.0
22/06:00pm 20.8 18.7 14.7 68 3.6 SE 19 26 10 14 1023.1 1023.1 0.0
22/05:30pm 21.6 18.7 15.0 66 3.9 SE 24 32 13 17 1022.7 1022.7 0.0
22/05:00pm 21.8 18.7 14.4 63 4.3 ESE 24 32 13 17 1022.6 1022.6 0.0
22/04:30pm 22.6 18.5 12.8 54 5.6 SE 26 32 14 17 1022.4 1022.4 0.0
22/04:00pm 22.4 18.3 12.6 54 5.6 ESE 26 32 14 17 1022.3 1022.3 0.0
22/03:30pm 23.2 20.1 14.5 58 5.1 ESE 24 32 13 17 1022.6 1022.6 0.0
22/03:00pm 22.8 19.2 13.0 54 5.6 ESE 24 32 13 17 1022.8 1022.8 0.0
22/02:30pm 23.3 19.6 12.6 51 6.1 SE 24 33 13 18 1023.0 1023.0 0.0
22/02:00pm 23.5 19.7 12.5 50 6.3 ESE 24 35 13 19 1023.2 1023.2 0.0
22/01:30pm 23.0 19.3 12.6 52 5.9 ESE 24 32 13 17 1023.6 1023.6 0.0
22/01:00pm 22.0 20.7 12.5 54 5.4 S 11 17 6 9 1023.9 1023.9 0.0
22/12:30pm 22.1 20.0 12.4 54 5.5 SSE 15 20 8 11 1024.2 1024.2 0.0
22/12:00pm 21.8 20.1 12.6 56 5.2 SSE 13 22 7 12 1024.6 1024.6 0.0
22/11:30am 21.4 19.3 12.3 56 5.1 SSE 15 20 8 11 1024.9 1024.9 0.0
22/11:00am 22.6 21.0 13.9 58 5.0 SSE 15 22 8 12 1025.1 1025.1 0.0
22/10:30am 21.3 20.9 13.0 59 4.7 ENE 7 11 4 6 1025.4 1025.4 0.0
22/10:00am 19.4 18.3 13.1 67 3.5 E 11 17 6 9 1025.6 1025.6 0.0
22/09:30am 20.2 19.0 12.9 63 4.1 SSE 11 15 6 8 1025.5 1025.5 0.0
22/09:00am 20.1 18.6 13.1 64 4.0 S 13 19 7 10 1025.3 1025.3 0.0
22/08:30am 19.5 17.4 12.3 63 4.0 S 15 19 8 10 1024.8 1024.8 0.0
22/08:00am 19.7 18.9 12.9 65 3.8 SSW 9 13 5 7 1024.6 1024.6 0.0
22/07:30am 18.7 18.0 13.1 70 3.2 SSW 9 13 5 7 1024.5 1024.5 0.0
22/07:00am 17.7 16.9 13.0 74 2.6 SW 9 13 5 7 1024.4 1024.4 0.0
22/06:30am 16.7 15.5 12.7 77 2.2 SW 11 17 6 9 1024.3 1024.3 0.0
22/06:00am 16.0 14.4 12.7 81 1.8 S 13 20 7 11 1024.0 1024.0 0.0
22/05:30am 15.6 14.5 13.1 85 1.4 S 11 17 6 9 1023.9 1023.9 0.0
22/05:00am 14.7 14.8 12.7 88 1.1 SW 4 6 2 3 1023.7 1023.7 0.0
22/04:30am 14.3 13.8 12.7 90 0.9 SW 7 9 4 5 1023.6 1023.6 0.0
22/04:00am 14.0 13.6 12.4 90 0.9 SW 6 9 3 5 1023.6 1023.6 0.0
22/03:30am 13.3 12.4 11.2 87 1.1 SW 7 9 4 5 1023.7 1023.7 0.0
22/03:00am 14.1 14.4 12.1 88 1.1 SW 2 9 1 5 1023.8 1023.8 0.0
22/02:30am 14.3 13.7 12.2 87 1.1 SW 7 9 4 5 1024.1 1024.1 0.0
22/02:00am 14.3 14.0 11.3 82 1.6 SW 4 9 2 5 1024.4 1024.4 0.0
22/01:30am 15.4 15.7 12.3 82 1.7 SW 2 9 1 5 1024.7 1024.7 0.0
22/01:00am 15.6 15.2 12.4 81 1.7 SW 6 9 3 5 1025.0 1025.0 0.0
22/12:30am 15.0 13.9 11.8 81 1.7 SW 9 11 5 6 1025.2 1025.2 0.0
22/12:00am 15.5 14.7 11.7 78 2.0 SW 7 9 4 5 1025.3 1025.3 0.0
 
Date/Time
EDT
Temp
°C
App
Temp
°C
Dew
Point
°C
Rel
Hum
%
Delta-T
°C
Wind Press
QNH
hPa
Press
MSL
hPa
Rain since
9am
mm
Dir  Spd
km/h
Gust
km/h
Spd
kts
Gust
kts
21/11:30pm 15.9 14.8 12.1 78 2.1 WSW 9 9 5 5 1025.5 1025.5 0.0
21/11:00pm 16.2 15.6 12.4 78 2.1 WSW 7 9 4 5 1025.5 1025.5 0.0
21/10:30pm 17.4 17.4 12.5 73 2.7 SW 4 9 2 5 1025.6 1025.6 0.0
21/10:00pm 17.5 16.2 12.4 72 2.8 SW 11 13 6 7 1025.6 1025.6 0.0
21/09:30pm 17.3 16.3 12.2 72 2.8 SW 9 13 5 7 1025.5 1025.5 0.0
21/09:00pm 17.4 16.3 12.1 71 2.9 SSW 9 13 5 7 1025.4 1025.4 0.0
21/08:30pm 17.9 17.1 11.7 67 3.4 SW 7 9 4 5 1025.4 1025.4 0.0
21/08:00pm 18.3 16.9 10.9 62 4.0 SSE 9 15 5 8 1025.1 1025.1 0.0
21/07:30pm 19.2 16.2 10.5 57 4.7 SSE 17 22 9 12 1024.8 1024.8 0.0
21/07:00pm 19.7 16.1 10.7 56 4.9 SE 20 30 11 16 1024.5 1024.5 0.0
21/06:30pm 20.3 17.2 11.5 57 4.9 SSE 19 32 10 17 1024.2 1024.2 0.0
21/06:00pm 20.5 16.1 11.7 57 4.9 SSE 26 35 14 19 1024.0 1024.0 0.0
21/05:30pm 21.3 16.3 10.8 51 5.8 SSE 28 37 15 20 1023.7 1023.7 0.0
21/05:00pm 22.9 17.5 11.0 47 6.6 SE 30 41 16 22 1023.4 1023.4 0.0
21/04:30pm 21.9 16.4 10.4 48 6.3 ESE 30 43 16 23 1023.4 1023.4 0.0
21/04:00pm 23.0 17.3 11.1 47 6.6 SE 32 41 17 22 1023.1 1023.1 0.0
21/03:30pm 22.9 16.7 10.0 44 7.0 SE 33 44 18 24 1023.2 1023.2 0.0
21/03:00pm 23.7 18.0 11.1 45 7.0 ESE 32 46 17 25 1023.4 1023.4 0.0
21/02:30pm 23.4 17.1 9.8 42 7.4 ESE 33 43 18 23 1023.7 1023.7 0.0
21/02:00pm 23.4 16.8 7.9 37 8.1 ESE 32 41 17 22 1024.0 1024.0 0.0

Other formats

Comma delimited format used in spreadsheet applications
http://www.bom.gov.au/fwo/IDN60801/IDN60801.94592.axf

JavaScript Object Notation format (JSON) in row-major order
http://www.bom.gov.au/fwo/IDN60801/IDN60801.94592.json

Data quality

Most of these data are generated automatically and are frequently updated. Quality checks on data are not normally performed. It is possible for incorrect values to appear. Refer to information at About Latest Weather Observations and please check the disclaimer before using these data.